Time;durP1;ratioP1;P1;durP2;ratioP2;P2;SDS_P1;SDS_P2;PMS_P1;PMS_P2;Temp;Humidity;BMP_temperature;BMP_pressure;BME280_temperature;BME280_humidity;BME280_pressure;Samples;Min_cycle;Max_cycle;Signal;HPM_P1;HPM_P2
2023/08/19 00:02:20;;;;;;;10.10;9.00;;;;;;;21.98;100.00;100983.19;5045499;28;20120;-69
2023/08/19 00:04:47;;;;;;;11.45;9.18;;;;;;;21.95;100.00;100978.13;5045139;28;20161;-67
2023/08/19 00:07:24;;;;;;;10.55;8.90;;;;;;;21.92;100.00;100973.91;5076537;28;21151;-67
2023/08/19 00:09:51;;;;;;;9.95;8.60;;;;;;;21.89;100.00;100974.22;5037316;28;20045;-68
2023/08/19 00:12:18;;;;;;;10.40;9.23;;;;;;;21.88;100.00;100979.72;5046884;28;20096;-67
2023/08/19 00:14:47;;;;;;;10.57;9.10;;;;;;;21.86;100.00;100985.25;5041173;28;20500;-68
2023/08/19 00:17:16;;;;;;;13.80;8.95;;;;;;;21.84;100.00;100986.38;5040755;28;20068;-68
2023/08/19 00:19:43;;;;;;;9.25;8.32;;;;;;;21.83;100.00;100982.88;5040333;28;20139;-68
2023/08/19 00:22:10;;;;;;;10.57;9.48;;;;;;;21.80;100.00;100980.53;5044288;28;20044;-70
2023/08/19 00:24:38;;;;;;;10.93;8.85;;;;;;;21.79;100.00;100973.44;5040658;28;20310;-68
2023/08/19 00:27:05;;;;;;;11.40;9.68;;;;;;;21.78;100.00;100976.28;5041077;28;20056;-69
2023/08/19 00:29:32;;;;;;;10.57;9.48;;;;;;;21.76;100.00;100971.09;5046941;28;20111;-68
2023/08/19 00:32:00;;;;;;;12.35;9.15;;;;;;;21.72;100.00;100973.25;5042214;28;20136;-67
2023/08/19 00:34:27;;;;;;;12.02;9.43;;;;;;;21.71;100.00;100968.88;5040977;28;20069;-69
2023/08/19 00:36:56;;;;;;;10.80;9.60;;;;;;;21.71;100.00;100968.88;5043720;28;20055;-68
2023/08/19 00:39:23;;;;;;;10.50;9.20;;;;;;;21.70;100.00;100964.53;5012559;28;20140;-67
2023/08/19 00:41:53;;;;;;;10.43;9.52;;;;;;;21.68;100.00;100968.34;5045997;28;20059;-68
2023/08/19 00:44:20;;;;;;;11.73;10.30;;;;;;;21.69;100.00;100970.03;5045258;28;20047;-68
2023/08/19 00:46:48;;;;;;;10.60;9.45;;;;;;;21.68;100.00;100969.19;5027126;28;20182;-68
2023/08/19 00:49:15;;;;;;;10.52;9.45;;;;;;;21.65;100.00;100972.16;5044844;28;20181;-69
2023/08/19 00:51:42;;;;;;;15.02;11.18;;;;;;;21.64;100.00;100980.38;5044890;28;20084;-68
2023/08/19 00:54:10;;;;;;;10.68;9.57;;;;;;;21.62;100.00;100974.31;5027543;28;20114;-68
2023/08/19 00:56:37;;;;;;;11.38;9.75;;;;;;;21.59;100.00;100967.44;5046689;28;20059;-69
2023/08/19 00:59:05;;;;;;;14.15;10.48;;;;;;;21.58;100.00;100973.78;5044817;28;20060;-69
2023/08/19 01:01:32;;;;;;;10.82;9.48;;;;;;;21.57;100.00;100964.06;5045410;28;20080;-69
2023/08/19 01:03:59;;;;;;;11.95;9.55;;;;;;;21.58;100.00;100972.94;5044384;28;20077;-69
2023/08/19 01:06:37;;;;;;;14.73;10.05;;;;;;;21.56;100.00;100972.25;5044678;28;20074;-68
2023/08/19 01:09:17;;;;;;;12.02;10.05;;;;;;;21.53;100.00;100973.41;5046361;28;20037;-69
2023/08/19 01:11:51;;;;;;;12.40;9.43;;;;;;;21.51;100.00;100966.50;5046150;28;20053;-68
2023/08/19 01:14:35;;;;;;;13.05;9.63;;;;;;;21.49;100.00;100974.72;5042994;28;20290;-69
2023/08/19 01:17:03;;;;;;;13.27;10.45;;;;;;;21.48;100.00;100965.00;5057783;28;20049;-69
2023/08/19 01:19:32;;;;;;;11.05;9.80;;;;;;;21.43;100.00;100968.13;5044638;28;20140;-69
2023/08/19 01:22:04;;;;;;;14.02;10.77;;;;;;;21.39;100.00;100964.06;5046183;28;20156;-68
2023/08/19 01:24:38;;;;;;;11.40;10.40;;;;;;;21.36;100.00;100964.38;5036123;28;20407;-68
2023/08/19 01:27:06;;;;;;;14.43;9.80;;;;;;;21.33;100.00;100956.63;5039126;28;20140;-68
2023/08/19 01:29:34;;;;;;;15.18;11.02;;;;;;;21.29;100.00;100954.38;5042350;28;20053;-68
2023/08/19 01:32:01;;;;;;;12.10;10.10;;;;;;;21.24;100.00;100954.81;5043095;28;20050;-68
2023/08/19 01:34:28;;;;;;;11.82;9.65;;;;;;;21.23;100.00;100951.31;5040633;28;20110;-68
2023/08/19 01:37:01;;;;;;;11.63;10.38;;;;;;;21.22;100.00;100948.78;5034880;28;20049;-68
2023/08/19 01:39:29;;;;;;;11.88;9.02;;;;;;;21.22;100.00;100946.13;5043459;28;20486;-67
2023/08/19 01:41:57;;;;;;;13.20;10.40;;;;;;;21.19;100.00;100955.28;5044848;28;20140;-69
2023/08/19 01:44:25;;;;;;;10.70;9.63;;;;;;;21.16;100.00;100960.09;5043122;28;20436;-68
2023/08/19 01:46:52;;;;;;;11.13;10.10;;;;;;;21.13;100.00;100952.38;5025705;28;20460;-68
2023/08/19 01:49:19;;;;;;;12.50;9.75;;;;;;;21.12;100.00;100951.53;5045016;28;20045;-69
2023/08/19 01:51:49;;;;;;;11.00;9.90;;;;;;;21.10;100.00;100952.66;5044798;28;20128;-68
2023/08/19 01:54:17;;;;;;;12.13;10.38;;;;;;;21.06;100.00;100943.25;5029766;28;20080;-68
2023/08/19 01:56:44;;;;;;;13.60;10.38;;;;;;;21.01;100.00;100941.03;5036075;28;20067;-69
2023/08/19 01:59:11;;;;;;;11.88;10.68;;;;;;;21.00;100.00;100944.72;5044862;28;20131;-68
2023/08/19 02:01:38;;;;;;;13.07;10.88;;;;;;;20.99;100.00;100951.06;5045136;28;20434;-68
2023/08/19 02:04:06;;;;;;;14.20;10.73;;;;;;;20.99;100.00;100940.34;5045280;28;20159;-68
2023/08/19 02:06:33;;;;;;;15.15;11.10;;;;;;;21.01;100.00;100946.38;5043575;28;20119;-68
2023/08/19 02:09:00;;;;;;;11.15;9.90;;;;;;;20.98;100.00;100947.53;5047502;28;20128;-67
2023/08/19 02:11:28;;;;;;;12.77;11.15;;;;;;;20.97;100.00;100948.50;5045160;28;20412;-68
2023/08/19 02:13:55;;;;;;;13.80;10.95;;;;;;;20.96;100.00;100952.19;5041352;28;20069;-68
2023/08/19 02:16:23;;;;;;;14.18;10.38;;;;;;;20.94;100.00;100948.81;5048901;28;20308;-68
2023/08/19 02:18:50;;;;;;;11.63;10.18;;;;;;;20.92;100.00;100947.28;5050215;28;20080;-67
2023/08/19 02:21:17;;;;;;;16.20;11.18;;;;;;;20.92;100.00;100952.63;5077587;28;20430;-68
2023/08/19 02:23:45;;;;;;;12.05;10.95;;;;;;;20.89;100.00;100953.78;5050600;28;20167;-68
2023/08/19 02:26:12;;;;;;;12.00;10.82;;;;;;;20.86;100.00;100948.72;5047345;28;20542;-68
2023/08/19 02:28:39;;;;;;;12.30;11.10;;;;;;;20.86;100.00;100950.56;5049110;28;20508;-68
2023/08/19 02:31:07;;;;;;;11.95;10.75;;;;;;;20.85;100.00;100952.41;5047335;28;20124;-68
2023/08/19 02:33:35;;;;;;;12.82;11.45;;;;;;;20.82;100.00;100946.50;5062316;28;20067;-68
2023/08/19 02:36:04;;;;;;;14.20;10.57;;;;;;;20.79;100.00;100946.78;5044190;28;20103;-68
2023/08/19 02:38:31;;;;;;;12.95;11.75;;;;;;;20.74;100.00;100945.41;5045339;28;20135;-68
2023/08/19 02:40:59;;;;;;;10.90;9.90;;;;;;;20.72;100.00;100952.75;5047676;28;20094;-68
2023/08/19 02:43:26;;;;;;;13.57;10.77;;;;;;;20.70;100.00;100949.34;5040022;28;20410;-68
2023/08/19 02:45:53;;;;;;;14.52;11.57;;;;;;;20.69;100.00;100957.53;5046411;28;20392;-68
2023/08/19 02:48:20;;;;;;;12.63;10.32;;;;;;;20.67;100.00;100965.72;5044569;28;20064;-69
2023/08/19 02:50:48;;;;;;;12.45;11.25;;;;;;;20.67;100.00;100960.38;5048759;28;20061;-69
2023/08/19 02:53:15;;;;;;;12.15;11.05;;;;;;;20.66;100.00;100958.66;5024399;28;20140;-69
2023/08/19 02:55:42;;;;;;;14.75;11.98;;;;;;;20.66;100.00;100955.16;5045484;28;20583;-69
2023/08/19 02:58:13;;;;;;;13.65;12.15;;;;;;;20.65;100.00;100956.16;5048037;28;20068;-68
2023/08/19 03:00:41;;;;;;;13.20;11.88;;;;;;;20.63;100.00;100953.63;5059876;28;20041;-69
2023/08/19 03:03:08;;;;;;;16.80;12.82;;;;;;;20.62;100.00;100957.28;5047723;28;20448;-69
2023/08/19 03:05:37;;;;;;;12.63;11.52;;;;;;;20.60;100.00;100958.44;5045294;28;20057;-69
2023/08/19 03:08:05;;;;;;;13.93;12.05;;;;;;;20.58;100.00;100966.59;5013253;28;20467;-69
2023/08/19 03:10:33;;;;;;;14.43;12.05;;;;;;;20.58;100.00;100963.94;5045307;28;20193;-69
2023/08/19 03:13:02;;;;;;;12.93;11.63;;;;;;;20.58;100.00;100969.28;5048274;28;20128;-69
2023/08/19 03:15:30;;;;;;;14.80;11.27;;;;;;;20.56;100.00;100965.91;5046348;28;20041;-68
2023/08/19 03:17:57;;;;;;;12.82;11.52;;;;;;;20.58;100.00;100965.75;5028918;28;20136;-69
2023/08/19 03:20:25;;;;;;;16.40;12.23;;;;;;;20.57;100.00;100962.22;5047947;28;20143;-69
2023/08/19 03:22:55;;;;;;;13.63;12.32;;;;;;;20.56;100.00;100971.25;5046218;28;20559;-69
2023/08/19 03:25:23;;;;;;;13.48;12.07;;;;;;;20.55;100.00;100969.56;5046025;28;20435;-69
2023/08/19 03:27:50;;;;;;;14.02;12.13;;;;;;;20.55;100.00;100977.59;5037747;28;20067;-69
2023/08/19 03:30:18;;;;;;;14.02;11.88;;;;;;;20.55;100.00;100979.44;5045701;28;20077;-69
2023/08/19 03:32:45;;;;;;;12.73;11.35;;;;;;;20.55;100.00;100977.59;5047497;28;20087;-69
2023/08/19 03:35:13;;;;;;;13.30;11.73;;;;;;;20.53;100.00;100976.03;5048869;28;20072;-69
2023/08/19 03:37:40;;;;;;;12.25;11.05;;;;;;;20.53;100.00;100978.72;5041897;28;20132;-70
2023/08/19 03:40:08;;;;;;;14.73;10.95;;;;;;;20.51;100.00;100970.00;5028244;28;20049;-69
2023/08/19 03:42:35;;;;;;;15.05;11.65;;;;;;;20.52;100.00;100974.38;5029848;28;20135;-70
2023/08/19 03:45:03;;;;;;;13.52;12.38;;;;;;;20.47;100.00;100970.28;5044755;28;20055;-71
2023/08/19 03:47:30;;;;;;;15.88;11.57;;;;;;;20.45;100.00;100976.75;5044896;28;20188;-70
2023/08/19 03:49:58;;;;;;;17.08;11.88;;;;;;;20.44;100.00;100973.25;5045354;28;20136;-72
2023/08/19 03:52:27;;;;;;;14.55;13.23;;;;;;;20.45;100.00;100974.09;5046932;28;20037;-71
2023/08/19 03:54:54;;;;;;;17.63;12.23;;;;;;;20.46;100.00;100971.25;5044680;28;20065;-70
2023/08/19 03:57:21;;;;;;;13.90;12.60;;;;;;;20.46;100.00;100975.75;5047018;28;20051;-69
2023/08/19 03:59:50;;;;;;;14.85;12.40;;;;;;;20.43;100.00;100973.38;5029902;28;20563;-71
2023/08/19 04:02:17;;;;;;;13.32;12.00;;;;;;;20.43;100.00;100979.56;5031502;28;20047;-73
2023/08/19 04:05:00;;;;;;;13.73;12.30;;;;;;;20.45;100.00;100979.44;5032716;28;20072;-70
2023/08/19 04:07:27;;;;;;;12.70;11.50;;;;;;;20.47;100.00;100985.47;5022307;28;20053;-75
2023/08/19 04:09:55;;;;;;;13.68;12.18;;;;;;;20.49;100.00;100980.88;5044065;28;20568;-70
2023/08/19 04:12:26;;;;;;;15.30;12.82;;;;;;;20.53;100.00;100984.06;5040162;28;20044;-70
2023/08/19 04:14:53;;;;;;;13.70;12.30;;;;;;;20.56;100.00;100981.94;5026958;28;20048;-71
2023/08/19 04:17:20;;;;;;;13.52;12.13;;;;;;;20.59;100.00;100988.84;5043757;28;20464;-71
2023/08/19 04:19:48;;;;;;;15.93;12.50;;;;;;;20.63;100.00;100992.91;5061724;28;20183;-72
2023/08/19 04:22:16;;;;;;;12.32;11.02;;;;;;;20.68;100.00;100980.78;5030687;28;20544;-70
2023/08/19 04:24:49;;;;;;;13.18;11.90;;;;;;;20.73;100.00;100989.19;5031788;28;20557;-70
2023/08/19 04:27:17;;;;;;;13.75;12.23;;;;;;;20.80;100.00;100988.59;5045349;28;20045;-69
2023/08/19 04:29:44;;;;;;;15.80;12.65;;;;;;;20.84;100.00;100992.66;5038494;28;20136;-71
2023/08/19 04:32:13;;;;;;;14.35;12.90;;;;;;;20.88;100.00;100989.53;5046680;28;20045;-69
2023/08/19 04:34:40;;;;;;;13.93;12.52;;;;;;;20.93;100.00;100994.47;5026828;28;20445;-70
2023/08/19 04:37:08;;;;;;;14.30;12.98;;;;;;;20.96;100.00;100994.16;5044754;28;20494;-68
2023/08/19 04:39:38;;;;;;;13.02;11.73;;;;;;;21.04;100.00;101004.97;5029621;28;20401;-72
2023/08/19 04:42:05;;;;;;;14.75;13.35;;;;;;;21.10;100.00;100998.19;5044338;28;20060;-73
2023/08/19 04:44:33;;;;;;;16.20;14.45;;;;;;;21.15;100.00;101002.09;5026437;28;20119;-72
2023/08/19 04:47:00;;;;;;;14.15;12.68;;;;;;;21.18;100.00;101001.78;5022617;28;20140;-72
2023/08/19 04:49:27;;;;;;;13.52;12.30;;;;;;;21.23;100.00;101004.84;5048336;28;20052;-77
2023/08/19 04:51:54;;;;;;;16.80;13.63;;;;;;;21.29;100.00;101002.56;5055376;28;20558;-75
2023/08/19 04:54:22;;;;;;;15.88;14.27;;;;;;;21.32;100.00;100996.97;5046954;28;20048;-72
2023/08/19 04:56:49;;;;;;;15.15;13.50;;;;;;;21.39;100.00;101001.56;5047149;28;20140;-72
2023/08/19 04:59:16;;;;;;;17.98;14.05;;;;;;;21.45;100.00;101003.63;5059956;28;20336;-72
2023/08/19 05:01:43;;;;;;;15.25;13.48;;;;;;;21.50;100.00;101000.50;5013688;28;20132;-73
2023/08/19 05:04:11;;;;;;;14.75;13.43;;;;;;;21.57;100.00;100993.53;5029319;28;20479;-76
2023/08/19 05:06:38;;;;;;;15.50;14.02;;;;;;;21.63;100.00;100989.41;5046234;28;20129;-75
2023/08/19 05:09:05;;;;;;;20.63;14.75;;;;;;;21.71;100.00;100994.84;5044494;28;20040;-74
2023/08/19 05:11:33;;;;;;;16.83;14.32;;;;;;;21.78;100.00;100997.72;5021928;28;20096;-75
2023/08/19 05:14:00;;;;;;;17.40;14.13;;;;;;;21.86;100.00;101005.84;5046466;28;20067;-71
2023/08/19 05:16:27;;;;;;;19.60;15.02;;;;;;;21.90;100.00;101002.72;5043946;28;20443;-73
2023/08/19 05:19:17;;;;;;;15.73;14.07;;;;;;;21.98;100.00;100999.25;5061019;28;20136;-71
2023/08/19 05:21:46;;;;;;;15.85;14.18;;;;;;;22.04;100.00;101004.00;5046045;28;20045;-74
2023/08/19 05:24:14;;;;;;;16.10;14.50;;;;;;;22.10;100.00;101011.41;5044319;28;20599;-74
2023/08/19 05:26:44;;;;;;;16.08;14.48;;;;;;;22.10;100.00;101008.72;5002144;28;20136;-74
2023/08/19 05:29:12;;;;;;;16.08;13.77;;;;;;;22.15;100.00;101011.81;5046389;28;20474;-74
2023/08/19 05:31:40;;;;;;;15.50;13.85;;;;;;;22.18;100.00;101010.66;5045898;28;20511;-73
2023/08/19 05:34:08;;;;;;;17.35;14.15;;;;;;;22.22;100.00;101017.41;5041401;28;20049;-72
2023/08/19 05:36:35;;;;;;;16.25;14.35;;;;;;;22.27;100.00;101009.72;5026491;28;20051;-74
2023/08/19 05:39:03;;;;;;;15.63;14.07;;;;;;;22.31;100.00;101012.94;5027183;28;20140;-74
2023/08/19 05:41:30;;;;;;;14.40;12.95;;;;;;;22.37;100.00;101010.44;5044778;28;20045;-76
2023/08/19 05:43:58;;;;;;;15.40;13.95;;;;;;;22.44;100.00;101008.84;5041464;28;20136;-75
2023/08/19 05:46:25;;;;;;;15.88;13.98;;;;;;;22.48;100.00;101004.84;5011630;28;20079;-74
2023/08/19 05:48:53;;;;;;;13.65;12.35;;;;;;;22.53;100.00;101014.25;5027083;28;20079;-75
2023/08/19 05:51:20;;;;;;;15.35;13.75;;;;;;;22.55;100.00;101013.09;5048979;28;20048;-75
2023/08/19 05:53:48;;;;;;;14.02;12.73;;;;;;;22.61;100.00;101012.47;5016925;28;20052;-76
2023/08/19 05:56:15;;;;;;;20.55;13.65;;;;;;;22.68;100.00;101013.50;5051523;28;20045;-74
2023/08/19 05:58:42;;;;;;;15.88;14.25;;;;;;;22.65;100.00;101011.16;5046879;28;20036;-74
2023/08/19 06:01:09;;;;;;;14.90;13.20;;;;;;;22.64;100.00;101013.97;5030455;28;20136;-72
2023/08/19 06:03:36;;;;;;;15.90;13.75;;;;;;;22.61;100.00;101015.16;5048783;28;20053;-73
2023/08/19 06:06:07;;;;;;;13.77;12.50;;;;;;;22.59;100.00;101017.13;5048413;28;20136;-72
2023/08/19 06:08:37;;;;;;;16.45;14.45;;;;;;;22.58;100.00;101018.13;5033912;28;20147;-69
2023/08/19 06:11:06;;;;;;;15.75;14.25;;;;;;;22.56;100.00;101024.66;5045188;28;20041;-69
2023/08/19 06:13:35;;;;;;;16.30;14.63;;;;;;;22.56;100.00;101021.97;5050416;28;20480;-69
2023/08/19 06:16:03;;;;;;;14.55;13.15;;;;;;;22.54;100.00;101022.13;5049136;28;20049;-69
2023/08/19 06:18:31;;;;;;;16.50;14.23;;;;;;;22.53;100.00;101020.47;5048778;28;20037;-69
2023/08/19 06:20:59;;;;;;;17.42;15.05;;;;;;;22.51;100.00;101030.50;5051293;28;20521;-71
2023/08/19 06:23:26;;;;;;;17.48;13.93;;;;;;;22.48;100.00;101031.66;5048730;28;20049;-73
2023/08/19 06:25:53;;;;;;;14.52;13.10;;;;;;;22.49;100.00;101032.50;5049759;28;20041;-72
2023/08/19 06:28:22;;;;;;;17.55;13.80;;;;;;;22.50;100.00;101035.03;5047972;28;20073;-73
2023/08/19 06:30:50;;;;;;;19.08;14.20;;;;;;;22.54;100.00;101035.56;5029395;28;20083;-73
2023/08/19 06:33:18;;;;;;;15.68;14.07;;;;;;;22.63;100.00;101037.28;5049299;28;20049;-71
2023/08/19 06:35:51;;;;;;;16.75;15.13;;;;;;;22.65;100.00;101035.31;5030716;28;21338;-71
2023/08/19 06:38:29;;;;;;;19.77;17.60;;;;;;;22.65;100.00;101031.75;5047141;28;20037;-72
2023/08/19 06:41:11;;;;;;;22.27;19.77;;;;;;;22.65;100.00;101035.31;5032076;28;20037;-73
2023/08/19 06:43:39;;;;;;;18.27;16.30;;;;;;;22.63;100.00;101034.59;5049920;28;20560;-72
2023/08/19 06:46:07;;;;;;;17.95;15.77;;;;;;;22.64;100.00;101040.81;5062464;28;20047;-72
2023/08/19 06:48:35;;;;;;;16.48;14.50;;;;;;;22.62;100.00;101043.66;5031155;28;20055;-72
2023/08/19 06:51:03;;;;;;;15.68;14.18;;;;;;;22.59;100.00;101041.28;5015628;28;20123;-71
2023/08/19 06:53:31;;;;;;;16.75;15.05;;;;;;;22.59;100.00;101049.34;5045339;28;20148;-74
2023/08/19 06:56:08;;;;;;;17.60;15.85;;;;;;;22.64;100.00;101049.69;5031205;28;20087;-74
2023/08/19 06:58:40;;;;;;;21.65;18.42;;;;;;;22.83;100.00;101047.78;5033506;28;20143;-73
2023/08/19 07:01:13;;;;;;;16.25;14.48;;;;;;;23.10;100.00;101054.81;5048668;28;20452;-73
2023/08/19 07:03:41;;;;;;;17.42;15.65;;;;;;;23.30;100.00;101061.63;5029305;28;20136;-75
2023/08/19 07:06:10;;;;;;;16.00;14.35;;;;;;;23.55;100.00;101065.25;5049416;28;20456;-75
2023/08/19 07:08:39;;;;;;;21.65;13.63;;;;;;;23.73;99.12;101063.31;5029968;28;20067;-75
2023/08/19 07:11:08;;;;;;;19.42;15.25;;;;;;;23.79;97.33;101066.34;5047595;28;20037;-75
2023/08/19 07:13:36;;;;;;;15.40;13.35;;;;;;;23.79;97.33;101067.16;5049793;28;20487;-75
2023/08/19 07:16:05;;;;;;;17.50;14.80;;;;;;;23.92;97.20;101067.53;5016393;28;20056;-75
2023/08/19 07:18:41;;;;;;;15.55;13.95;;;;;;;24.10;96.21;101067.38;5047143;28;20056;-76
2023/08/19 07:21:09;;;;;;;15.32;13.73;;;;;;;24.26;94.45;101070.03;5025861;28;20476;-75
2023/08/19 07:23:39;;;;;;;16.30;14.48;;;;;;;24.48;93.76;101075.78;5032022;28;20383;-73
2023/08/19 07:26:08;;;;;;;15.93;13.55;;;;;;;24.64;92.37;101078.47;5052024;28;20128;-74
2023/08/19 07:28:36;;;;;;;17.75;13.85;;;;;;;24.79;91.49;101077.75;5046084;28;20164;-75
2023/08/19 07:31:06;;;;;;;18.98;14.82;;;;;;;24.89;89.93;101081.91;5047160;28;20111;-74
2023/08/19 07:33:34;;;;;;;14.77;12.93;;;;;;;25.02;89.77;101084.06;5041753;28;20124;-74
2023/08/19 07:36:01;;;;;;;15.15;13.65;;;;;;;25.16;88.83;101083.38;5046086;28;20472;-76
2023/08/19 07:38:28;;;;;;;15.20;13.68;;;;;;;25.20;87.18;101087.41;5026997;28;20107;-75
2023/08/19 07:40:56;;;;;;;17.00;12.82;;;;;;;25.31;87.30;101088.03;5028348;28;20061;-73
2023/08/19 07:43:23;;;;;;;15.75;14.25;;;;;;;25.37;86.46;101088.19;5053377;28;20404;-74
2023/08/19 07:45:50;;;;;;;15.65;14.10;;;;;;;25.46;86.01;101092.50;5044546;28;20053;-73
2023/08/19 07:48:18;;;;;;;16.38;14.57;;;;;;;25.59;84.98;101085.72;5047658;28;20150;-71
2023/08/19 07:50:45;;;;;;;14.68;12.77;;;;;;;25.75;84.80;101089.13;5047279;28;20094;-72
2023/08/19 07:53:15;;;;;;;15.52;13.02;;;;;;;25.86;84.33;101084.41;5013440;28;20131;-72
2023/08/19 07:55:43;;;;;;;13.70;12.50;;;;;;;26.01;83.46;101078.03;5044485;28;20163;-70
2023/08/19 07:58:10;;;;;;;15.80;13.35;;;;;;;26.12;82.40;101084.88;5047088;28;20041;-71
2023/08/19 08:00:37;;;;;;;14.82;13.40;;;;;;;26.20;81.86;101079.38;5047427;28;20139;-70
2023/08/19 08:03:06;;;;;;;14.32;12.80;;;;;;;26.25;80.27;101079.72;5044732;28;20136;-70
2023/08/19 08:05:34;;;;;;;15.75;13.07;;;;;;;26.22;80.32;101082.75;5046070;28;20131;-72
2023/08/19 08:08:02;;;;;;;13.68;12.15;;;;;;;26.34;80.17;101082.31;5047765;28;20036;-72
2023/08/19 08:10:29;;;;;;;15.30;13.10;;;;;;;26.42;80.08;101082.25;5044924;28;20049;-72
2023/08/19 08:12:57;;;;;;;14.30;12.95;;;;;;;26.49;79.60;101080.53;5046312;28;20037;-72
2023/08/19 08:15:24;;;;;;;18.25;14.95;;;;;;;26.47;78.12;101078.00;5048506;28;20049;-72
2023/08/19 08:17:51;;;;;;;13.18;11.88;;;;;;;26.57;78.08;101079.59;5047727;28;20511;-70
2023/08/19 08:20:18;;;;;;;12.85;11.52;;;;;;;26.71;77.22;101076.94;5048247;28;20079;-69
2023/08/19 08:22:46;;;;;;;12.60;10.93;;;;;;;26.82;77.08;101083.72;5048585;28;20495;-78
2023/08/19 08:25:13;;;;;;;13.60;10.85;;;;;;;26.93;76.09;101080.59;5029377;28;20063;-73
2023/08/19 08:27:40;;;;;;;12.95;11.75;;;;;;;27.03;76.10;101083.00;5044178;28;20132;-73
2023/08/19 08:30:08;;;;;;;17.67;12.77;;;;;;;27.06;75.32;101077.19;5043003;28;20045;-74
2023/08/19 08:32:35;;;;;;;13.85;12.65;;;;;;;27.19;75.25;101077.41;5043967;28;20479;-72
2023/08/19 08:35:04;;;;;;;13.32;11.98;;;;;;;27.39;75.00;101082.25;5042668;28;20033;-73
2023/08/19 08:37:31;;;;;;;11.15;10.05;;;;;;;27.52;74.36;101080.53;5043274;28;20055;-74
2023/08/19 08:39:58;;;;;;;14.00;11.13;;;;;;;27.66;73.15;101078.81;5041900;28;20087;-75
2023/08/19 08:42:26;;;;;;;12.35;11.07;;;;;;;27.69;72.09;101081.16;5046597;28;20145;-74
2023/08/19 08:44:54;;;;;;;12.65;11.18;;;;;;;27.76;71.68;101068.53;5043555;28;20041;-74
2023/08/19 08:47:22;;;;;;;12.05;10.95;;;;;;;27.90;71.48;101068.69;5027731;28;20202;-72
2023/08/19 08:49:49;;;;;;;10.63;9.48;;;;;;;28.00;71.47;101077.31;5059295;28;20148;-74
2023/08/19 08:52:17;;;;;;;10.70;9.68;;;;;;;28.07;70.25;101080.09;5029319;28;20059;-69
2023/08/19 08:54:45;;;;;;;13.30;9.98;;;;;;;28.08;69.00;101081.75;5042247;28;20080;-67
2023/08/19 08:57:16;;;;;;;12.85;9.57;;;;;;;28.14;69.37;101079.09;5045246;28;20768;-68
2023/08/19 08:59:43;;;;;;;10.23;9.23;;;;;;;28.31;68.66;101084.25;5044588;28;20075;-69
2023/08/19 09:02:15;;;;;;;9.43;8.52;;;;;;;28.39;67.67;101076.84;5041990;28;20045;-70
2023/08/19 09:04:44;;;;;;;11.35;9.43;;;;;;;28.43;66.26;101077.31;5011974;28;20139;-70
2023/08/19 09:07:40;;;;;;;11.10;9.80;;;;;;;28.51;66.42;101067.16;5043213;28;20037;-70
2023/08/19 09:10:12;;;;;;;11.38;9.80;;;;;;;28.67;66.35;101076.84;5057146;28;20064;-71
2023/08/19 09:12:43;;;;;;;10.35;9.35;;;;;;;28.80;66.60;101083.38;5047843;28;20056;-70
2023/08/19 09:15:11;;;;;;;11.52;8.85;;;;;;;28.88;65.60;101083.25;5045221;28;20128;-70
2023/08/19 09:17:39;;;;;;;10.23;8.80;;;;;;;28.99;65.32;101082.69;5006993;28;20167;-69
2023/08/19 09:20:08;;;;;;;11.85;9.10;;;;;;;29.05;64.44;101084.63;5024139;28;20126;-66
2023/08/19 09:23:41;;;;;;;10.30;8.65;;;;;;;29.04;63.32;101087.50;5035883;28;20896;-69
2023/08/19 09:26:10;;;;;;;10.55;8.23;;;;;;;29.10;62.75;101086.72;5047482;28;20159;-69
2023/08/19 09:28:38;;;;;;;9.38;8.38;;;;;;;29.21;62.59;101091.56;5044210;28;20133;-69
2023/08/19 09:31:20;;;;;;;11.95;8.60;;;;;;;29.33;62.11;101087.25;5044928;28;20049;-69
2023/08/19 09:33:48;;;;;;;10.07;9.00;;;;;;;29.41;61.44;101083.53;5043309;28;20488;-74
2023/08/19 09:36:15;;;;;;;10.02;9.00;;;;;;;29.46;61.20;101086.47;5039003;28;20147;-65
